Aérodrome :
LOGIN :

S'inscrire | Disclaimer

   EN    FR    IT 

 










Légende :    VFR   VFR Marginal   IFR   IFR Intensif   IFR Très Intensif
Visi : 
Plafond : 
>= 8 km
>= 3000ft
5 à 8 km
1000 à 3000 ft
1500m à 5 km
500 à 1000 ft
800 à 1500m
200 à 500 ft
< 800m
< 200 ft
Symboles :   Orages  Brouillard  Fortes neiges  Fortes précipitations  Vent > 20 kt
SIGMETs :   Divers  Orages  Givrage  Turbulence  Onde Orograph.  Cendres Volcan.







- Altitude de l'aérodrome : 100 ft


EBDT - Schaffen

DERNIER METAR :
  • 101955Z 27007KT 9999 FEW045 04/02 Q1025 BLU BLU

METARs EXPIRÉS :
  • 101925Z 27007KT 9999 FEW045 04/02 Q1025 BLU BLU
  • 101855Z 26007KT 9999 FEW045 04/03 Q1025 BLU BLU
  • 101844Z 26006KT 9999 FEW040 SCT070 04/03 Q1025 BLU BLU
  • 101825Z 26007KT 9999 FEW040 SCT070 04/03 Q1025 BLU BLU TEMPO WHT
  • 101755Z 28006KT 9999 FEW020 SCT040 BKN060 05/03 Q1025 BLU BLU TEMPO WHT
  • 101725Z 27006KT 9999 FEW020 SCT030 BKN060 05/03 Q1025 BLU BLU TEMPO WHT

TAF TAF EBDT
Valide du 10 à 19h jusqu'au 11 à 07h UTC


101541Z 1019/1107 28006KT 9999 SCT030
Pas de NOTAMs connus pour ce terrain.



MET'MAP, la Météo Aéronautique d'un coup d'oeil ! - Copyright ORBIFLY Décembre 2007 - Disclaimer

ORBIFLY MET'MAP TEAM :

Programmation & Développement : Alexandra Zaïnal
Conception & Développement : Baudouin d'Aumeries
Co-Programmation & Développement : Marc-Olivier Méhu
Soutien technique & logistique : Manuel Goepfert

Contact : metmap@orbifly.com




SOURCES & CREDITS :

   NOAA